sensor_id;sensor_type;location;lat;lon;timestamp;temperature;humidity
11599;DHT22;5855;48.840;9.188;2023-11-21T00:02:24;8.30;99.90
11599;DHT22;5855;48.840;9.188;2023-11-21T00:04:52;8.30;99.90
11599;DHT22;5855;48.840;9.188;2023-11-21T00:07:39;8.30;99.90
11599;DHT22;5855;48.840;9.188;2023-11-21T00:10:26;8.20;99.90
11599;DHT22;5855;48.840;9.188;2023-11-21T00:12:54;8.20;99.90
11599;DHT22;5855;48.840;9.188;2023-11-21T00:15:21;8.20;99.90
11599;DHT22;5855;48.840;9.188;2023-11-21T00:17:49;8.10;99.90
11599;DHT22;5855;48.840;9.188;2023-11-21T00:20:35;8.10;99.90
11599;DHT22;5855;48.840;9.188;2023-11-21T00:23:04;8.10;99.90
11599;DHT22;5855;48.840;9.188;2023-11-21T00:25:33;8.10;99.90
11599;DHT22;5855;48.840;9.188;2023-11-21T00:28:21;8.00;99.90
11599;DHT22;5855;48.840;9.188;2023-11-21T00:30:48;8.10;99.90
11599;DHT22;5855;48.840;9.188;2023-11-21T00:33:15;8.00;99.90
11599;DHT22;5855;48.840;9.188;2023-11-21T00:35:41;8.00;99.90
11599;DHT22;5855;48.840;9.188;2023-11-21T00:38:10;8.10;99.90
11599;DHT22;5855;48.840;9.188;2023-11-21T00:43:59;8.10;99.90
11599;DHT22;5855;48.840;9.188;2023-11-21T00:46:26;8.10;99.90
11599;DHT22;5855;48.840;9.188;2023-11-21T00:52:16;8.20;99.90
11599;DHT22;5855;48.840;9.188;2023-11-21T00:54:45;8.20;99.90
11599;DHT22;5855;48.840;9.188;2023-11-21T00:57:11;8.10;99.90
11599;DHT22;5855;48.840;9.188;2023-11-21T00:59:40;8.20;99.90
11599;DHT22;5855;48.840;9.188;2023-11-21T01:02:07;8.20;99.90
11599;DHT22;5855;48.840;9.188;2023-11-21T01:04:36;8.30;99.90
11599;DHT22;5855;48.840;9.188;2023-11-21T01:07:03;8.30;99.90
11599;DHT22;5855;48.840;9.188;2023-11-21T01:09:31;8.40;99.90
11599;DHT22;5855;48.840;9.188;2023-11-21T01:11:59;8.40;99.90
11599;DHT22;5855;48.840;9.188;2023-11-21T01:14:26;8.40;99.90
11599;DHT22;5855;48.840;9.188;2023-11-21T01:17:12;8.30;99.90
11599;DHT22;5855;48.840;9.188;2023-11-21T01:19:39;8.40;99.90
11599;DHT22;5855;48.840;9.188;2023-11-21T01:22:24;8.40;99.90
11599;DHT22;5855;48.840;9.188;2023-11-21T01:24:53;8.40;99.90
11599;DHT22;5855;48.840;9.188;2023-11-21T01:27:22;8.40;99.90
11599;DHT22;5855;48.840;9.188;2023-11-21T01:29:49;8.40;99.90
11599;DHT22;5855;48.840;9.188;2023-11-21T01:32:19;8.40;99.90
11599;DHT22;5855;48.840;9.188;2023-11-21T01:34:47;8.40;99.90
11599;DHT22;5855;48.840;9.188;2023-11-21T01:40:23;8.40;99.90
11599;DHT22;5855;48.840;9.188;2023-11-21T01:42:53;8.30;99.90
11599;DHT22;5855;48.840;9.188;2023-11-21T01:45:20;8.30;99.90
11599;DHT22;5855;48.840;9.188;2023-11-21T01:47:47;8.30;99.90
11599;DHT22;5855;48.840;9.188;2023-11-21T01:50:16;8.40;99.90
11599;DHT22;5855;48.840;9.188;2023-11-21T01:52:45;8.40;99.90
11599;DHT22;5855;48.840;9.188;2023-11-21T01:55:16;8.40;99.90
11599;DHT22;5855;48.840;9.188;2023-11-21T01:57:45;8.40;99.90
11599;DHT22;5855;48.840;9.188;2023-11-21T02:00:14;8.40;99.90
11599;DHT22;5855;48.840;9.188;2023-11-21T02:06:07;8.30;99.90
11599;DHT22;5855;48.840;9.188;2023-11-21T02:11:41;8.40;99.90
11599;DHT22;5855;48.840;9.188;2023-11-21T02:14:08;8.40;99.90
11599;DHT22;5855;48.840;9.188;2023-11-21T02:16:36;8.40;99.90
11599;DHT22;5855;48.840;9.188;2023-11-21T02:19:06;8.40;99.90
11599;DHT22;5855;48.840;9.188;2023-11-21T02:21:36;8.40;99.90
11599;DHT22;5855;48.840;9.188;2023-11-21T02:30:16;8.50;99.90
11599;DHT22;5855;48.840;9.188;2023-11-21T02:32:44;8.50;99.90
11599;DHT22;5855;48.840;9.188;2023-11-21T02:35:11;8.50;99.90
11599;DHT22;5855;48.840;9.188;2023-11-21T02:37:38;8.50;99.90
11599;DHT22;5855;48.840;9.188;2023-11-21T02:40:08;8.50;99.90
11599;DHT22;5855;48.840;9.188;2023-11-21T02:42:38;8.50;99.90
11599;DHT22;5855;48.840;9.188;2023-11-21T02:45:06;8.60;99.90
11599;DHT22;5855;48.840;9.188;2023-11-21T02:47:35;8.60;99.90
11599;DHT22;5855;48.840;9.188;2023-11-21T02:50:01;8.60;99.90
11599;DHT22;5855;48.840;9.188;2023-11-21T02:52:29;8.60;99.90
11599;DHT22;5855;48.840;9.188;2023-11-21T02:54:58;8.60;99.90
11599;DHT22;5855;48.840;9.188;2023-11-21T02:57:25;8.60;99.90
11599;DHT22;5855;48.840;9.188;2023-11-21T02:59:52;8.50;99.90
11599;DHT22;5855;48.840;9.188;2023-11-21T03:02:19;8.50;99.90
11599;DHT22;5855;48.840;9.188;2023-11-21T03:04:47;8.50;99.90
11599;DHT22;5855;48.840;9.188;2023-11-21T03:07:15;8.50;99.90
11599;DHT22;5855;48.840;9.188;2023-11-21T03:09:41;8.50;99.90
11599;DHT22;5855;48.840;9.188;2023-11-21T03:12:10;8.40;99.90
11599;DHT22;5855;48.840;9.188;2023-11-21T03:14:37;8.40;99.90
11599;DHT22;5855;48.840;9.188;2023-11-21T03:17:04;8.40;99.90
11599;DHT22;5855;48.840;9.188;2023-11-21T03:19:32;8.40;99.90
11599;DHT22;5855;48.840;9.188;2023-11-21T03:22:00;8.40;99.90
11599;DHT22;5855;48.840;9.188;2023-11-21T03:24:27;8.40;99.90
11599;DHT22;5855;48.840;9.188;2023-11-21T03:26:53;8.50;99.90
11599;DHT22;5855;48.840;9.188;2023-11-21T03:29:20;8.40;99.90
11599;DHT22;5855;48.840;9.188;2023-11-21T03:31:47;8.30;99.90
11599;DHT22;5855;48.840;9.188;2023-11-21T03:34:19;8.40;99.90
11599;DHT22;5855;48.840;9.188;2023-11-21T03:36:46;8.30;99.90
11599;DHT22;5855;48.840;9.188;2023-11-21T03:39:14;8.30;99.90
11599;DHT22;5855;48.840;9.188;2023-11-21T03:41:41;8.20;99.90
11599;DHT22;5855;48.840;9.188;2023-11-21T03:44:08;8.20;99.90
11599;DHT22;5855;48.840;9.188;2023-11-21T03:46:35;8.20;99.90
11599;DHT22;5855;48.840;9.188;2023-11-21T03:49:02;8.30;99.90
11599;DHT22;5855;48.840;9.188;2023-11-21T03:51:28;8.20;99.90
11599;DHT22;5855;48.840;9.188;2023-11-21T03:53:55;8.20;99.90
11599;DHT22;5855;48.840;9.188;2023-11-21T03:56:24;8.20;99.90
11599;DHT22;5855;48.840;9.188;2023-11-21T03:58:51;8.20;99.90
11599;DHT22;5855;48.840;9.188;2023-11-21T04:01:21;8.20;99.90
11599;DHT22;5855;48.840;9.188;2023-11-21T04:03:48;8.20;99.90
11599;DHT22;5855;48.840;9.188;2023-11-21T04:06:15;8.20;99.90
11599;DHT22;5855;48.840;9.188;2023-11-21T04:08:43;8.10;99.90
11599;DHT22;5855;48.840;9.188;2023-11-21T04:11:10;8.10;99.90
11599;DHT22;5855;48.840;9.188;2023-11-21T04:13:38;8.10;99.90
11599;DHT22;5855;48.840;9.188;2023-11-21T04:16:06;8.10;99.90
11599;DHT22;5855;48.840;9.188;2023-11-21T04:18:34;8.10;99.90
11599;DHT22;5855;48.840;9.188;2023-11-21T04:21:04;8.20;99.90
11599;DHT22;5855;48.840;9.188;2023-11-21T04:23:31;8.20;99.90
11599;DHT22;5855;48.840;9.188;2023-11-21T04:25:58;8.20;99.90
11599;DHT22;5855;48.840;9.188;2023-11-21T04:28:25;8.20;99.90
11599;DHT22;5855;48.840;9.188;2023-11-21T04:30:54;8.20;99.90
11599;DHT22;5855;48.840;9.188;2023-11-21T04:33:21;8.20;99.90
11599;DHT22;5855;48.840;9.188;2023-11-21T04:35:49;8.10;99.90
11599;DHT22;5855;48.840;9.188;2023-11-21T04:38:16;8.10;99.90
11599;DHT22;5855;48.840;9.188;2023-11-21T04:40:44;8.00;99.90
11599;DHT22;5855;48.840;9.188;2023-11-21T04:43:12;7.90;99.90
11599;DHT22;5855;48.840;9.188;2023-11-21T04:45:38;7.90;99.90
11599;DHT22;5855;48.840;9.188;2023-11-21T04:48:08;7.90;99.90
11599;DHT22;5855;48.840;9.188;2023-11-21T04:50:37;7.90;99.90
11599;DHT22;5855;48.840;9.188;2023-11-21T04:53:04;8.00;99.90
11599;DHT22;5855;48.840;9.188;2023-11-21T04:55:31;8.00;99.90
11599;DHT22;5855;48.840;9.188;2023-11-21T04:57:58;8.00;99.90
11599;DHT22;5855;48.840;9.188;2023-11-21T05:00:25;8.00;99.90
11599;DHT22;5855;48.840;9.188;2023-11-21T05:02:52;8.00;99.90
11599;DHT22;5855;48.840;9.188;2023-11-21T05:05:20;8.00;99.90
11599;DHT22;5855;48.840;9.188;2023-11-21T05:07:47;8.10;99.90
11599;DHT22;5855;48.840;9.188;2023-11-21T05:10:14;8.00;99.90
11599;DHT22;5855;48.840;9.188;2023-11-21T05:12:41;8.00;99.90
11599;DHT22;5855;48.840;9.188;2023-11-21T05:15:09;8.00;99.90
11599;DHT22;5855;48.840;9.188;2023-11-21T05:17:40;7.90;99.90
11599;DHT22;5855;48.840;9.188;2023-11-21T05:20:09;7.90;99.90
11599;DHT22;5855;48.840;9.188;2023-11-21T05:22:38;7.90;99.90
11599;DHT22;5855;48.840;9.188;2023-11-21T05:25:06;7.90;99.90
11599;DHT22;5855;48.840;9.188;2023-11-21T05:27:33;7.90;99.90
11599;DHT22;5855;48.840;9.188;2023-11-21T05:30:01;7.90;99.90
11599;DHT22;5855;48.840;9.188;2023-11-21T05:32:28;7.90;99.90
11599;DHT22;5855;48.840;9.188;2023-11-21T05:34:55;7.90;99.90
11599;DHT22;5855;48.840;9.188;2023-11-21T05:37:22;7.90;99.90
11599;DHT22;5855;48.840;9.188;2023-11-21T05:39:51;7.90;99.90
11599;DHT22;5855;48.840;9.188;2023-11-21T05:42:18;7.90;99.90
11599;DHT22;5855;48.840;9.188;2023-11-21T05:44:46;7.90;99.90
11599;DHT22;5855;48.840;9.188;2023-11-21T05:47:13;7.90;99.90
11599;DHT22;5855;48.840;9.188;2023-11-21T05:49:40;7.90;99.90
11599;DHT22;5855;48.840;9.188;2023-11-21T05:52:07;7.90;99.90
11599;DHT22;5855;48.840;9.188;2023-11-21T05:54:36;8.00;99.90
11599;DHT22;5855;48.840;9.188;2023-11-21T05:57:05;8.00;99.90
11599;DHT22;5855;48.840;9.188;2023-11-21T05:59:32;8.00;99.90
11599;DHT22;5855;48.840;9.188;2023-11-21T06:02:03;7.90;99.90
11599;DHT22;5855;48.840;9.188;2023-11-21T06:04:30;7.90;99.90
11599;DHT22;5855;48.840;9.188;2023-11-21T06:07:02;7.90;99.90
11599;DHT22;5855;48.840;9.188;2023-11-21T06:09:30;7.90;99.90
11599;DHT22;5855;48.840;9.188;2023-11-21T06:11:56;7.80;99.90
11599;DHT22;5855;48.840;9.188;2023-11-21T06:14:25;7.70;99.90
11599;DHT22;5855;48.840;9.188;2023-11-21T06:16:52;7.70;99.90
11599;DHT22;5855;48.840;9.188;2023-11-21T06:19:19;7.80;99.90
11599;DHT22;5855;48.840;9.188;2023-11-21T06:21:46;7.80;99.90
11599;DHT22;5855;48.840;9.188;2023-11-21T06:24:13;7.80;99.90
11599;DHT22;5855;48.840;9.188;2023-11-21T06:26:41;7.90;99.90
11599;DHT22;5855;48.840;9.188;2023-11-21T06:29:09;7.80;99.90
11599;DHT22;5855;48.840;9.188;2023-11-21T06:31:39;7.70;99.90
11599;DHT22;5855;48.840;9.188;2023-11-21T06:34:06;7.70;99.90
11599;DHT22;5855;48.840;9.188;2023-11-21T06:36:35;7.70;99.90
11599;DHT22;5855;48.840;9.188;2023-11-21T06:39:02;7.70;99.90
11599;DHT22;5855;48.840;9.188;2023-11-21T06:41:32;7.70;99.90
11599;DHT22;5855;48.840;9.188;2023-11-21T06:43:59;7.70;99.90
11599;DHT22;5855;48.840;9.188;2023-11-21T06:46:26;7.70;99.90
11599;DHT22;5855;48.840;9.188;2023-11-21T06:48:54;7.70;99.90
11599;DHT22;5855;48.840;9.188;2023-11-21T06:51:21;7.70;99.90
11599;DHT22;5855;48.840;9.188;2023-11-21T06:53:48;7.70;99.90
11599;DHT22;5855;48.840;9.188;2023-11-21T06:56:18;7.70;99.90
11599;DHT22;5855;48.840;9.188;2023-11-21T06:58:45;7.70;99.90
11599;DHT22;5855;48.840;9.188;2023-11-21T07:01:12;7.80;99.90
11599;DHT22;5855;48.840;9.188;2023-11-21T07:03:40;7.90;99.90
11599;DHT22;5855;48.840;9.188;2023-11-21T07:06:09;7.90;99.90
11599;DHT22;5855;48.840;9.188;2023-11-21T07:08:37;7.90;99.90
11599;DHT22;5855;48.840;9.188;2023-11-21T07:11:04;8.00;99.90
11599;DHT22;5855;48.840;9.188;2023-11-21T07:13:31;8.00;99.90
11599;DHT22;5855;48.840;9.188;2023-11-21T07:16:00;8.00;99.90
11599;DHT22;5855;48.840;9.188;2023-11-21T07:18:26;8.00;99.90
11599;DHT22;5855;48.840;9.188;2023-11-21T07:20:56;8.00;99.90
11599;DHT22;5855;48.840;9.188;2023-11-21T07:23:25;8.00;99.90
11599;DHT22;5855;48.840;9.188;2023-11-21T07:25:52;8.00;99.90
11599;DHT22;5855;48.840;9.188;2023-11-21T07:28:19;8.10;99.90
11599;DHT22;5855;48.840;9.188;2023-11-21T07:30:46;8.00;99.90
11599;DHT22;5855;48.840;9.188;2023-11-21T07:33:13;8.10;99.90
11599;DHT22;5855;48.840;9.188;2023-11-21T07:35:40;8.10;99.90
11599;DHT22;5855;48.840;9.188;2023-11-21T07:38:07;8.10;99.90
11599;DHT22;5855;48.840;9.188;2023-11-21T07:40:35;8.10;99.90
11599;DHT22;5855;48.840;9.188;2023-11-21T07:43:04;8.20;99.90
11599;DHT22;5855;48.840;9.188;2023-11-21T07:45:31;8.20;99.90
11599;DHT22;5855;48.840;9.188;2023-11-21T07:48:00;8.20;99.90
11599;DHT22;5855;48.840;9.188;2023-11-21T07:50:29;8.20;99.90
11599;DHT22;5855;48.840;9.188;2023-11-21T07:52:55;8.20;99.90
11599;DHT22;5855;48.840;9.188;2023-11-21T07:55:22;8.30;99.90
11599;DHT22;5855;48.840;9.188;2023-11-21T07:57:51;8.30;99.90
11599;DHT22;5855;48.840;9.188;2023-11-21T08:00:19;8.30;99.90
11599;DHT22;5855;48.840;9.188;2023-11-21T08:02:46;8.40;99.90
11599;DHT22;5855;48.840;9.188;2023-11-21T08:05:13;8.40;99.90
11599;DHT22;5855;48.840;9.188;2023-11-21T08:07:41;8.40;99.90
11599;DHT22;5855;48.840;9.188;2023-11-21T08:10:10;8.50;99.90
11599;DHT22;5855;48.840;9.188;2023-11-21T08:12:37;8.50;99.90
11599;DHT22;5855;48.840;9.188;2023-11-21T08:15:07;8.60;99.90
11599;DHT22;5855;48.840;9.188;2023-11-21T08:17:35;8.70;99.90
11599;DHT22;5855;48.840;9.188;2023-11-21T08:20:02;8.80;99.90
11599;DHT22;5855;48.840;9.188;2023-11-21T08:22:29;8.80;99.90
11599;DHT22;5855;48.840;9.188;2023-11-21T08:24:56;8.90;99.90
11599;DHT22;5855;48.840;9.188;2023-11-21T08:27:23;9.00;99.90
11599;DHT22;5855;48.840;9.188;2023-11-21T08:29:50;9.10;99.90
11599;DHT22;5855;48.840;9.188;2023-11-21T08:32:19;9.20;99.90
11599;DHT22;5855;48.840;9.188;2023-11-21T08:34:46;9.30;99.90
11599;DHT22;5855;48.840;9.188;2023-11-21T08:37:16;9.50;99.90
11599;DHT22;5855;48.840;9.188;2023-11-21T08:39:43;9.60;99.90
11599;DHT22;5855;48.840;9.188;2023-11-21T08:42:10;9.70;99.90
11599;DHT22;5855;48.840;9.188;2023-11-21T08:44:37;9.80;99.90
11599;DHT22;5855;48.840;9.188;2023-11-21T08:47:05;9.90;99.90
11599;DHT22;5855;48.840;9.188;2023-11-21T08:49:33;9.90;99.90
11599;DHT22;5855;48.840;9.188;2023-11-21T08:52:00;10.00;99.90
11599;DHT22;5855;48.840;9.188;2023-11-21T08:54:27;10.00;99.90
11599;DHT22;5855;48.840;9.188;2023-11-21T08:56:54;10.10;99.90
11599;DHT22;5855;48.840;9.188;2023-11-21T08:59:26;10.20;99.90
11599;DHT22;5855;48.840;9.188;2023-11-21T09:01:53;10.20;99.90
11599;DHT22;5855;48.840;9.188;2023-11-21T09:04:20;10.40;99.90
11599;DHT22;5855;48.840;9.188;2023-11-21T09:06:48;10.50;99.90
11599;DHT22;5855;48.840;9.188;2023-11-21T09:09:15;10.50;99.90
11599;DHT22;5855;48.840;9.188;2023-11-21T09:11:42;10.50;99.90
11599;DHT22;5855;48.840;9.188;2023-11-21T09:14:12;10.40;99.90
11599;DHT22;5855;48.840;9.188;2023-11-21T09:16:41;10.50;99.90
11599;DHT22;5855;48.840;9.188;2023-11-21T09:19:08;10.40;99.90
11599;DHT22;5855;48.840;9.188;2023-11-21T09:21:35;10.40;99.90
11599;DHT22;5855;48.840;9.188;2023-11-21T09:24:04;10.30;99.90
11599;DHT22;5855;48.840;9.188;2023-11-21T09:26:34;10.30;99.90
11599;DHT22;5855;48.840;9.188;2023-11-21T09:29:04;10.30;99.90
11599;DHT22;5855;48.840;9.188;2023-11-21T09:31:34;10.30;99.90
11599;DHT22;5855;48.840;9.188;2023-11-21T09:34:01;10.30;99.90
11599;DHT22;5855;48.840;9.188;2023-11-21T09:36:29;10.30;99.90
11599;DHT22;5855;48.840;9.188;2023-11-21T09:38:56;10.30;99.90
11599;DHT22;5855;48.840;9.188;2023-11-21T09:41:31;10.30;99.90
11599;DHT22;5855;48.840;9.188;2023-11-21T09:44:04;10.20;99.90
11599;DHT22;5855;48.840;9.188;2023-11-21T09:46:37;10.20;99.90
11599;DHT22;5855;48.840;9.188;2023-11-21T09:49:09;10.20;99.90
11599;DHT22;5855;48.840;9.188;2023-11-21T09:51:39;10.20;99.90
11599;DHT22;5855;48.840;9.188;2023-11-21T09:54:10;10.20;99.90
11599;DHT22;5855;48.840;9.188;2023-11-21T09:56:38;10.10;99.90
11599;DHT22;5855;48.840;9.188;2023-11-21T09:59:06;10.10;99.90
11599;DHT22;5855;48.840;9.188;2023-11-21T10:01:36;10.10;99.90
11599;DHT22;5855;48.840;9.188;2023-11-21T10:04:04;10.00;99.90
11599;DHT22;5855;48.840;9.188;2023-11-21T10:06:41;9.80;99.90
11599;DHT22;5855;48.840;9.188;2023-11-21T10:09:10;9.70;99.90
11599;DHT22;5855;48.840;9.188;2023-11-21T10:11:40;9.60;99.90
11599;DHT22;5855;48.840;9.188;2023-11-21T10:14:08;9.50;99.90
11599;DHT22;5855;48.840;9.188;2023-11-21T10:16:38;9.40;99.90
11599;DHT22;5855;48.840;9.188;2023-11-21T10:19:06;9.50;99.90
11599;DHT22;5855;48.840;9.188;2023-11-21T10:21:35;9.40;99.90
11599;DHT22;5855;48.840;9.188;2023-11-21T10:24:02;9.40;99.90
11599;DHT22;5855;48.840;9.188;2023-11-21T10:26:35;9.30;99.90
11599;DHT22;5855;48.840;9.188;2023-11-21T10:29:04;9.30;99.90
11599;DHT22;5855;48.840;9.188;2023-11-21T10:31:32;9.30;99.90
11599;DHT22;5855;48.840;9.188;2023-11-21T10:34:12;9.20;99.90
11599;DHT22;5855;48.840;9.188;2023-11-21T10:36:39;9.30;99.90
11599;DHT22;5855;48.840;9.188;2023-11-21T10:39:09;9.40;99.90
11599;DHT22;5855;48.840;9.188;2023-11-21T10:41:43;9.50;99.90
11599;DHT22;5855;48.840;9.188;2023-11-21T10:44:13;9.50;99.90
11599;DHT22;5855;48.840;9.188;2023-11-21T10:46:45;9.50;99.90
11599;DHT22;5855;48.840;9.188;2023-11-21T10:49:16;9.70;99.90
11599;DHT22;5855;48.840;9.188;2023-11-21T10:51:44;10.00;99.90
11599;DHT22;5855;48.840;9.188;2023-11-21T10:54:11;10.20;99.90
11599;DHT22;5855;48.840;9.188;2023-11-21T10:56:39;10.30;99.90
11599;DHT22;5855;48.840;9.188;2023-11-21T10:59:10;10.40;99.90
11599;DHT22;5855;48.840;9.188;2023-11-21T11:01:42;10.30;99.90
11599;DHT22;5855;48.840;9.188;2023-11-21T11:04:12;10.30;99.90
11599;DHT22;5855;48.840;9.188;2023-11-21T11:06:43;10.30;99.90
11599;DHT22;5855;48.840;9.188;2023-11-21T11:09:12;10.30;99.90
11599;DHT22;5855;48.840;9.188;2023-11-21T11:11:40;10.40;99.90
11599;DHT22;5855;48.840;9.188;2023-11-21T11:14:12;10.40;99.90
11599;DHT22;5855;48.840;9.188;2023-11-21T11:16:41;10.40;99.90
11599;DHT22;5855;48.840;9.188;2023-11-21T11:19:08;10.50;99.90
11599;DHT22;5855;48.840;9.188;2023-11-21T11:21:46;10.60;99.90
11599;DHT22;5855;48.840;9.188;2023-11-21T11:24:39;10.80;99.90
11599;DHT22;5855;48.840;9.188;2023-11-21T11:27:36;11.10;99.90
11599;DHT22;5855;48.840;9.188;2023-11-21T11:30:14;11.20;99.90
11599;DHT22;5855;48.840;9.188;2023-11-21T11:32:53;11.30;99.90
11599;DHT22;5855;48.840;9.188;2023-11-21T11:35:29;11.10;99.90
11599;DHT22;5855;48.840;9.188;2023-11-21T11:38:01;11.00;99.90
11599;DHT22;5855;48.840;9.188;2023-11-21T11:40:39;11.00;99.90
11599;DHT22;5855;48.840;9.188;2023-11-21T11:43:07;10.90;99.90
11599;DHT22;5855;48.840;9.188;2023-11-21T11:45:34;10.80;99.90
11599;DHT22;5855;48.840;9.188;2023-11-21T11:48:08;10.80;99.90
11599;DHT22;5855;48.840;9.188;2023-11-21T11:50:42;10.80;99.90
11599;DHT22;5855;48.840;9.188;2023-11-21T11:53:33;10.70;99.90
11599;DHT22;5855;48.840;9.188;2023-11-21T11:56:23;10.70;99.90
11599;DHT22;5855;48.840;9.188;2023-11-21T11:58:51;10.70;99.90
11599;DHT22;5855;48.840;9.188;2023-11-21T12:01:22;10.70;99.90
11599;DHT22;5855;48.840;9.188;2023-11-21T12:04:25;10.80;99.90
11599;DHT22;5855;48.840;9.188;2023-11-21T12:07:00;10.70;99.90
11599;DHT22;5855;48.840;9.188;2023-11-21T12:09:29;10.80;99.90
11599;DHT22;5855;48.840;9.188;2023-11-21T12:11:57;10.80;99.90
11599;DHT22;5855;48.840;9.188;2023-11-21T12:14:24;10.70;99.90
11599;DHT22;5855;48.840;9.188;2023-11-21T12:16:51;10.80;99.90
11599;DHT22;5855;48.840;9.188;2023-11-21T12:19:19;10.90;99.90
11599;DHT22;5855;48.840;9.188;2023-11-21T12:21:48;11.00;99.90
11599;DHT22;5855;48.840;9.188;2023-11-21T12:24:19;11.20;99.90
11599;DHT22;5855;48.840;9.188;2023-11-21T12:26:46;11.40;99.90
11599;DHT22;5855;48.840;9.188;2023-11-21T12:29:22;11.60;99.90
11599;DHT22;5855;48.840;9.188;2023-11-21T12:31:51;11.70;99.90
11599;DHT22;5855;48.840;9.188;2023-11-21T12:34:20;12.00;99.90
11599;DHT22;5855;48.840;9.188;2023-11-21T12:36:48;12.30;99.90
11599;DHT22;5855;48.840;9.188;2023-11-21T12:39:15;12.50;99.90
11599;DHT22;5855;48.840;9.188;2023-11-21T12:41:43;12.90;99.90
11599;DHT22;5855;48.840;9.188;2023-11-21T12:44:12;12.80;99.90
11599;DHT22;5855;48.840;9.188;2023-11-21T12:46:42;12.50;99.90
11599;DHT22;5855;48.840;9.188;2023-11-21T12:49:10;12.40;99.90
11599;DHT22;5855;48.840;9.188;2023-11-21T12:51:43;12.40;99.90
11599;DHT22;5855;48.840;9.188;2023-11-21T12:54:12;12.10;99.90
11599;DHT22;5855;48.840;9.188;2023-11-21T12:56:39;11.80;99.90
11599;DHT22;5855;48.840;9.188;2023-11-21T12:59:06;11.60;99.90
11599;DHT22;5855;48.840;9.188;2023-11-21T13:01:37;11.60;99.90
11599;DHT22;5855;48.840;9.188;2023-11-21T13:04:08;11.70;99.90
11599;DHT22;5855;48.840;9.188;2023-11-21T13:06:36;11.60;99.90
11599;DHT22;5855;48.840;9.188;2023-11-21T13:09:06;11.10;99.90
11599;DHT22;5855;48.840;9.188;2023-11-21T13:11:37;10.70;99.90
11599;DHT22;5855;48.840;9.188;2023-11-21T13:14:06;10.50;99.90
11599;DHT22;5855;48.840;9.188;2023-11-21T13:16:35;10.40;99.90
11599;DHT22;5855;48.840;9.188;2023-11-21T13:19:03;10.30;99.90
11599;DHT22;5855;48.840;9.188;2023-11-21T13:21:30;10.10;99.90
11599;DHT22;5855;48.840;9.188;2023-11-21T13:24:00;10.00;99.90
11599;DHT22;5855;48.840;9.188;2023-11-21T13:26:32;9.90;99.90
11599;DHT22;5855;48.840;9.188;2023-11-21T13:29:02;9.70;99.90
11599;DHT22;5855;48.840;9.188;2023-11-21T13:31:30;9.60;99.90
11599;DHT22;5855;48.840;9.188;2023-11-21T13:33:58;9.50;99.90
11599;DHT22;5855;48.840;9.188;2023-11-21T13:36:30;9.40;99.90
11599;DHT22;5855;48.840;9.188;2023-11-21T13:39:01;9.40;99.90
11599;DHT22;5855;48.840;9.188;2023-11-21T13:41:33;9.30;99.90
11599;DHT22;5855;48.840;9.188;2023-11-21T13:44:01;9.40;99.90
11599;DHT22;5855;48.840;9.188;2023-11-21T13:46:40;9.40;99.90
11599;DHT22;5855;48.840;9.188;2023-11-21T13:49:06;9.40;99.90
11599;DHT22;5855;48.840;9.188;2023-11-21T13:51:35;9.40;99.90
11599;DHT22;5855;48.840;9.188;2023-11-21T13:54:06;9.40;99.90
11599;DHT22;5855;48.840;9.188;2023-11-21T13:56:38;9.50;99.90
11599;DHT22;5855;48.840;9.188;2023-11-21T13:59:08;9.50;99.90
11599;DHT22;5855;48.840;9.188;2023-11-21T14:01:50;9.60;99.90
11599;DHT22;5855;48.840;9.188;2023-11-21T14:04:21;9.60;99.90
11599;DHT22;5855;48.840;9.188;2023-11-21T14:07:15;9.60;99.90
11599;DHT22;5855;48.840;9.188;2023-11-21T14:09:51;9.60;99.90
11599;DHT22;5855;48.840;9.188;2023-11-21T14:12:24;9.70;99.90
11599;DHT22;5855;48.840;9.188;2023-11-21T14:14:52;9.70;99.90
11599;DHT22;5855;48.840;9.188;2023-11-21T14:17:20;9.70;99.90
11599;DHT22;5855;48.840;9.188;2023-11-21T14:19:48;9.70;99.90
11599;DHT22;5855;48.840;9.188;2023-11-21T14:22:15;9.70;99.90
11599;DHT22;5855;48.840;9.188;2023-11-21T14:24:42;9.70;99.90
11599;DHT22;5855;48.840;9.188;2023-11-21T14:27:12;9.60;99.90
11599;DHT22;5855;48.840;9.188;2023-11-21T14:29:40;9.70;99.90
11599;DHT22;5855;48.840;9.188;2023-11-21T14:32:11;9.60;99.90
11599;DHT22;5855;48.840;9.188;2023-11-21T14:34:39;9.60;99.90
11599;DHT22;5855;48.840;9.188;2023-11-21T14:37:08;9.60;99.90
11599;DHT22;5855;48.840;9.188;2023-11-21T14:39:39;9.60;99.90
11599;DHT22;5855;48.840;9.188;2023-11-21T14:42:10;9.50;99.90
11599;DHT22;5855;48.840;9.188;2023-11-21T14:44:37;9.50;99.90
11599;DHT22;5855;48.840;9.188;2023-11-21T14:47:05;9.50;99.90
11599;DHT22;5855;48.840;9.188;2023-11-21T14:49:41;9.50;99.90
11599;DHT22;5855;48.840;9.188;2023-11-21T14:52:18;9.50;99.90
11599;DHT22;5855;48.840;9.188;2023-11-21T14:54:57;9.50;99.90
11599;DHT22;5855;48.840;9.188;2023-11-21T14:57:45;9.50;99.90
11599;DHT22;5855;48.840;9.188;2023-11-21T15:00:16;9.40;99.90
11599;DHT22;5855;48.840;9.188;2023-11-21T15:03:05;9.40;99.90
11599;DHT22;5855;48.840;9.188;2023-11-21T15:05:34;9.40;99.90
11599;DHT22;5855;48.840;9.188;2023-11-21T15:08:01;9.30;99.90
11599;DHT22;5855;48.840;9.188;2023-11-21T15:10:42;9.30;99.90
11599;DHT22;5855;48.840;9.188;2023-11-21T15:13:13;9.30;99.90
11599;DHT22;5855;48.840;9.188;2023-11-21T15:15:40;9.20;99.90
11599;DHT22;5855;48.840;9.188;2023-11-21T15:18:06;9.20;99.90
11599;DHT22;5855;48.840;9.188;2023-11-21T15:20:36;9.10;99.90
11599;DHT22;5855;48.840;9.188;2023-11-21T15:23:03;9.10;99.90
11599;DHT22;5855;48.840;9.188;2023-11-21T15:25:31;9.10;99.90
11599;DHT22;5855;48.840;9.188;2023-11-21T15:27:59;9.00;99.90
11599;DHT22;5855;48.840;9.188;2023-11-21T15:30:26;9.00;99.90
11599;DHT22;5855;48.840;9.188;2023-11-21T15:32:53;9.00;99.90
11599;DHT22;5855;48.840;9.188;2023-11-21T15:35:20;8.90;99.90
11599;DHT22;5855;48.840;9.188;2023-11-21T15:37:49;8.90;99.90
11599;DHT22;5855;48.840;9.188;2023-11-21T15:40:16;8.90;99.90
11599;DHT22;5855;48.840;9.188;2023-11-21T15:42:43;8.90;99.90
11599;DHT22;5855;48.840;9.188;2023-11-21T15:45:10;8.80;99.90
11599;DHT22;5855;48.840;9.188;2023-11-21T15:47:38;8.80;99.90
11599;DHT22;5855;48.840;9.188;2023-11-21T15:50:06;8.80;99.90
11599;DHT22;5855;48.840;9.188;2023-11-21T15:52:36;8.70;99.90
11599;DHT22;5855;48.840;9.188;2023-11-21T15:55:05;8.70;99.90
11599;DHT22;5855;48.840;9.188;2023-11-21T15:57:34;8.60;99.90
11599;DHT22;5855;48.840;9.188;2023-11-21T16:00:05;8.60;99.90
11599;DHT22;5855;48.840;9.188;2023-11-21T16:02:42;8.60;99.90
11599;DHT22;5855;48.840;9.188;2023-11-21T16:05:10;8.50;99.90
11599;DHT22;5855;48.840;9.188;2023-11-21T16:07:40;8.60;99.90
11599;DHT22;5855;48.840;9.188;2023-11-21T16:10:10;8.50;99.90
11599;DHT22;5855;48.840;9.188;2023-11-21T16:12:40;8.50;99.90
11599;DHT22;5855;48.840;9.188;2023-11-21T16:15:08;8.40;99.90
11599;DHT22;5855;48.840;9.188;2023-11-21T16:17:36;8.40;99.90
11599;DHT22;5855;48.840;9.188;2023-11-21T16:20:04;8.40;99.90
11599;DHT22;5855;48.840;9.188;2023-11-21T16:22:34;8.40;99.90
11599;DHT22;5855;48.840;9.188;2023-11-21T16:25:01;8.40;99.90
11599;DHT22;5855;48.840;9.188;2023-11-21T16:27:31;8.30;99.90
11599;DHT22;5855;48.840;9.188;2023-11-21T16:29:57;8.30;99.90
11599;DHT22;5855;48.840;9.188;2023-11-21T16:32:24;8.30;99.90
11599;DHT22;5855;48.840;9.188;2023-11-21T16:34:52;8.20;99.90